createdAt,value
2022-08-31T00:01:11.032Z,4.22
2022-08-31T00:03:56.678Z,3.95
2022-08-31T00:06:26.330Z,3.45
2022-08-31T00:08:59.171Z,3.70
2022-08-31T00:11:34.285Z,3.40
2022-08-31T00:14:03.081Z,3.60
2022-08-31T00:16:31.852Z,3.00
2022-08-31T00:19:02.678Z,2.50
2022-08-31T00:21:29.833Z,3.17
2022-08-31T00:23:56.840Z,4.00
2022-08-31T00:26:26.841Z,3.42
2022-08-31T00:28:56.157Z,3.63
2022-08-31T00:31:26.617Z,3.33
2022-08-31T00:34:04.315Z,3.58
2022-08-31T00:36:34.193Z,3.75
2022-08-31T00:39:07.215Z,4.20
2022-08-31T00:41:40.222Z,3.55
2022-08-31T00:46:44.142Z,3.33
2022-08-31T00:49:21.418Z,3.50
2022-08-31T00:52:05.277Z,3.97
2022-08-31T00:54:39.632Z,3.83
2022-08-31T00:57:17.888Z,3.90
2022-08-31T00:59:54.231Z,4.03
2022-08-31T01:02:23.734Z,4.40
2022-08-31T01:04:54.400Z,4.30
2022-08-31T01:07:21.461Z,4.03
2022-08-31T01:09:55.785Z,3.80
2022-08-31T01:12:24.473Z,4.10
2022-08-31T01:14:58.329Z,3.80
2022-08-31T01:17:25.452Z,3.95
2022-08-31T01:19:59.404Z,3.53
2022-08-31T01:23:05.198Z,4.10
2022-08-31T01:25:41.296Z,3.78
2022-08-31T01:28:15.606Z,3.90
2022-08-31T01:30:42.970Z,3.78
2022-08-31T01:33:11.380Z,4.10
2022-08-31T01:35:40.043Z,4.25
2022-08-31T01:38:12.710Z,4.72
2022-08-31T01:40:53.727Z,3.83
2022-08-31T01:43:24.246Z,4.07
2022-08-31T01:45:57.874Z,4.28
2022-08-31T01:48:31.024Z,4.15
2022-08-31T01:51:06.390Z,4.35
2022-08-31T01:53:39.772Z,4.43
2022-08-31T01:56:17.307Z,4.25
2022-08-31T01:58:49.736Z,4.38
2022-08-31T02:01:34.051Z,4.43
2022-08-31T02:04:04.691Z,4.75
2022-08-31T02:06:34.563Z,4.57
2022-08-31T02:09:02.242Z,4.10
2022-08-31T02:11:35.208Z,5.50
2022-08-31T02:14:03.541Z,5.13
2022-08-31T02:16:33.122Z,4.82
2022-08-31T02:19:05.447Z,5.18
2022-08-31T02:21:39.838Z,4.80
2022-08-31T02:24:13.333Z,5.05
2022-08-31T02:26:40.372Z,6.10
2022-08-31T02:29:08.729Z,6.18
2022-08-31T02:31:36.850Z,5.20
2022-08-31T02:34:06.594Z,5.80
2022-08-31T02:36:35.807Z,5.70
2022-08-31T02:39:06.009Z,6.18
2022-08-31T02:41:32.981Z,6.82
2022-08-31T02:44:06.820Z,6.25
2022-08-31T02:46:39.470Z,5.28
2022-08-31T02:49:11.939Z,5.05
2022-08-31T02:51:42.474Z,5.72
2022-08-31T02:54:09.619Z,5.38
2022-08-31T02:56:41.114Z,5.03
2022-08-31T02:59:16.902Z,5.03
2022-08-31T03:01:44.075Z,5.22
2022-08-31T03:04:23.095Z,4.78
2022-08-31T03:06:54.169Z,5.28
2022-08-31T03:09:21.118Z,4.78
2022-08-31T03:11:49.086Z,5.13
2022-08-31T03:14:19.803Z,4.68
2022-08-31T03:16:52.435Z,5.25
2022-08-31T03:19:22.484Z,5.18
2022-08-31T03:21:55.887Z,4.57
2022-08-31T03:24:27.087Z,5.18
2022-08-31T03:26:58.890Z,5.53
2022-08-31T03:29:34.439Z,4.72
2022-08-31T03:32:09.466Z,4.90
2022-08-31T03:34:42.058Z,4.82
2022-08-31T03:37:08.952Z,4.82
2022-08-31T03:39:35.855Z,4.85
2022-08-31T03:42:02.901Z,4.75
2022-08-31T03:44:31.058Z,4.70
2022-08-31T03:47:02.596Z,4.63
2022-08-31T03:49:29.451Z,4.57
2022-08-31T03:51:58.985Z,4.78
2022-08-31T03:54:28.278Z,5.07
2022-08-31T03:57:03.116Z,5.00
2022-08-31T03:59:32.901Z,5.03
2022-08-31T04:02:03.180Z,5.32
2022-08-31T04:04:32.803Z,5.30
2022-08-31T04:07:07.076Z,5.28
2022-08-31T04:09:42.292Z,5.32
2022-08-31T04:12:10.654Z,5.25
2022-08-31T04:14:37.694Z,5.50
2022-08-31T04:17:11.161Z,5.00
2022-08-31T04:19:47.538Z,4.55
2022-08-31T04:22:20.229Z,5.05
2022-08-31T04:24:55.754Z,5.68
2022-08-31T04:27:24.844Z,5.68
2022-08-31T04:29:54.333Z,5.60
2022-08-31T04:32:29.912Z,5.63
2022-08-31T04:34:57.601Z,5.80
2022-08-31T04:37:27.143Z,5.25
2022-08-31T04:39:59.036Z,5.18
2022-08-31T04:42:30.564Z,5.43
2022-08-31T04:45:02.404Z,5.70
2022-08-31T04:47:32.235Z,5.18
2022-08-31T04:50:01.068Z,5.30
2022-08-31T04:52:30.081Z,5.38
2022-08-31T04:54:57.438Z,5.82
2022-08-31T04:57:25.748Z,5.60
2022-08-31T04:59:57.747Z,5.55
2022-08-31T05:02:27.374Z,5.20
2022-08-31T05:04:59.494Z,5.50
2022-08-31T05:07:30.796Z,5.60
2022-08-31T05:10:03.940Z,5.43
2022-08-31T05:12:31.100Z,5.30
2022-08-31T05:15:01.951Z,5.93
2022-08-31T05:17:34.576Z,5.28
2022-08-31T05:20:05.527Z,5.35
2022-08-31T05:22:39.489Z,4.70
2022-08-31T05:25:12.191Z,4.85
2022-08-31T05:27:39.761Z,5.07
2022-08-31T05:30:09.936Z,4.15
2022-08-31T05:32:39.967Z,4.28
2022-08-31T05:35:08.415Z,4.20
2022-08-31T05:37:35.238Z,4.45
2022-08-31T05:40:03.511Z,4.22
2022-08-31T05:42:36.193Z,4.38
2022-08-31T05:45:13.966Z,4.35
2022-08-31T05:47:41.017Z,4.15
2022-08-31T05:50:13.843Z,4.38
2022-08-31T05:52:50.540Z,4.55
2022-08-31T05:55:22.604Z,4.30
2022-08-31T05:57:49.724Z,3.60
2022-08-31T06:00:18.279Z,3.92
2022-08-31T06:02:45.410Z,4.10
2022-08-31T06:05:12.321Z,4.10
2022-08-31T06:07:39.235Z,3.85
2022-08-31T06:10:06.307Z,3.83
2022-08-31T06:12:34.376Z,4.38
2022-08-31T06:15:05.337Z,4.18
2022-08-31T06:17:32.874Z,3.95
2022-08-31T06:19:59.735Z,4.07
2022-08-31T06:22:26.713Z,4.00
2022-08-31T06:24:53.574Z,4.50
2022-08-31T06:27:20.446Z,4.55
2022-08-31T06:29:49.181Z,4.40
2022-08-31T06:32:17.169Z,5.22
2022-08-31T06:34:44.060Z,4.30
2022-08-31T06:37:18.374Z,4.65
2022-08-31T06:39:46.630Z,4.47
2022-08-31T06:42:13.508Z,4.57
2022-08-31T06:44:44.660Z,4.78
2022-08-31T06:47:20.754Z,4.60
2022-08-31T06:49:55.632Z,5.30
2022-08-31T06:52:30.481Z,4.40
2022-08-31T06:55:06.297Z,4.32
2022-08-31T06:57:37.462Z,4.45
2022-08-31T07:00:12.680Z,4.43
2022-08-31T07:02:57.233Z,4.63
2022-08-31T07:05:33.625Z,4.60
2022-08-31T07:08:01.835Z,4.72
2022-08-31T07:10:31.941Z,4.65
2022-08-31T07:13:09.835Z,4.88
2022-08-31T07:15:42.166Z,4.75
2022-08-31T07:18:16.462Z,4.72
2022-08-31T07:20:43.267Z,4.72
2022-08-31T07:23:10.024Z,4.05
2022-08-31T07:25:39.203Z,4.50
2022-08-31T07:28:06.090Z,4.82
2022-08-31T07:30:42.086Z,4.53
2022-08-31T07:33:09.432Z,4.95
2022-08-31T07:35:36.501Z,4.93
2022-08-31T07:38:23.574Z,4.60
2022-08-31T07:41:08.843Z,4.72
2022-08-31T07:43:36.868Z,5.03
2022-08-31T07:46:06.824Z,5.30
2022-08-31T07:48:33.640Z,4.90
2022-08-31T07:51:00.646Z,5.25
2022-08-31T07:53:27.981Z,5.15
2022-08-31T07:56:01.942Z,5.20
2022-08-31T07:58:31.443Z,4.95
2022-08-31T08:01:03.330Z,4.53
2022-08-31T08:03:36.118Z,4.87
2022-08-31T08:06:12.821Z,5.07
2022-08-31T08:08:42.834Z,4.65
2022-08-31T08:11:28.037Z,4.78
2022-08-31T08:14:08.464Z,5.05
2022-08-31T08:16:38.554Z,4.20
2022-08-31T08:19:15.098Z,4.80
2022-08-31T08:21:43.508Z,5.20
2022-08-31T08:24:10.738Z,4.97
2022-08-31T08:26:41.723Z,4.50
2022-08-31T08:29:14.250Z,4.38
2022-08-31T08:31:41.320Z,4.40
2022-08-31T08:34:15.014Z,4.60
2022-08-31T08:36:44.672Z,4.38
2022-08-31T08:39:11.801Z,4.53
2022-08-31T08:41:40.970Z,4.90
2022-08-31T08:44:17.808Z,4.50
2022-08-31T08:46:51.438Z,4.55
2022-08-31T08:49:19.592Z,4.60
2022-08-31T08:51:56.013Z,4.25
2022-08-31T08:54:38.680Z,4.50
2022-08-31T08:57:17.836Z,5.07
2022-08-31T08:59:48.747Z,4.47
2022-08-31T09:03:02.968Z,4.60
2022-08-31T09:05:51.854Z,4.82
2022-08-31T09:08:34.052Z,4.85
2022-08-31T09:11:18.686Z,4.70
2022-08-31T09:14:14.196Z,4.15
2022-08-31T09:17:17.912Z,4.70
2022-08-31T09:20:10.925Z,4.38
2022-08-31T09:22:50.323Z,4.70
2022-08-31T09:25:33.170Z,4.50
2022-08-31T09:28:01.649Z,4.50
2022-08-31T09:30:38.637Z,4.75
2022-08-31T09:33:07.928Z,4.85
2022-08-31T09:35:42.882Z,4.25
2022-08-31T09:38:18.012Z,4.32
2022-08-31T09:40:50.968Z,4.07
2022-08-31T09:43:27.963Z,3.88
2022-08-31T09:46:12.247Z,4.43
2022-08-31T09:48:51.475Z,4.60
2022-08-31T09:51:34.508Z,4.57
2022-08-31T09:54:27.498Z,4.50
2022-08-31T09:57:02.407Z,4.07
2022-08-31T09:59:41.945Z,4.75
2022-08-31T10:02:33.445Z,4.13
2022-08-31T10:05:06.766Z,4.50
2022-08-31T10:07:53.116Z,4.03
2022-08-31T10:10:33.425Z,4.57
2022-08-31T10:13:10.118Z,4.45
2022-08-31T10:15:41.993Z,4.43
2022-08-31T10:18:13.899Z,4.40
2022-08-31T10:20:51.341Z,4.50
2022-08-31T10:23:21.265Z,4.55
2022-08-31T10:25:52.778Z,4.93
2022-08-31T10:28:31.846Z,3.90
2022-08-31T10:31:04.250Z,4.47
2022-08-31T10:33:55.911Z,4.30
2022-08-31T10:36:33.230Z,4.13
2022-08-31T10:39:02.726Z,4.50
2022-08-31T10:41:41.050Z,4.20
2022-08-31T10:44:29.833Z,4.38
2022-08-31T10:47:02.742Z,3.85
2022-08-31T10:49:29.724Z,3.75
2022-08-31T10:52:10.400Z,4.10
2022-08-31T10:55:15.738Z,4.18
2022-08-31T10:57:50.875Z,3.70
2022-08-31T11:00:40.798Z,3.75
2022-08-31T11:03:17.081Z,3.92
2022-08-31T11:05:50.742Z,3.88
2022-08-31T11:08:53.681Z,3.67
2022-08-31T11:11:43.797Z,3.80
2022-08-31T11:14:35.871Z,3.80
2022-08-31T11:17:30.028Z,4.10
2022-08-31T11:20:23.173Z,3.92
2022-08-31T11:25:34.381Z,3.90
2022-08-31T11:28:15.415Z,3.85
2022-08-31T11:30:50.964Z,3.67
2022-08-31T11:33:21.438Z,3.50
2022-08-31T11:36:14.319Z,3.72
2022-08-31T11:38:48.016Z,3.65
2022-08-31T11:41:37.521Z,3.50
2022-08-31T11:44:11.474Z,3.70
2022-08-31T11:46:41.912Z,3.40
2022-08-31T11:49:13.792Z,3.65
2022-08-31T11:51:47.903Z,3.80
2022-08-31T11:54:27.936Z,3.40
2022-08-31T11:56:57.032Z,4.10
2022-08-31T11:59:26.761Z,3.55
2022-08-31T12:02:03.947Z,3.72
2022-08-31T12:04:42.091Z,3.70
2022-08-31T12:07:29.517Z,3.42
2022-08-31T12:10:07.872Z,3.53
2022-08-31T12:12:42.548Z,3.97
2022-08-31T12:15:10.771Z,3.45
2022-08-31T12:17:53.179Z,3.55
2022-08-31T12:20:56.765Z,3.30
2022-08-31T12:23:57.016Z,3.92
2022-08-31T12:26:45.629Z,3.70
2022-08-31T12:29:26.398Z,3.30
2022-08-31T12:32:19.398Z,3.55
2022-08-31T12:35:01.432Z,3.38
2022-08-31T12:37:34.864Z,3.20
2022-08-31T12:40:25.414Z,3.05
2022-08-31T12:43:08.740Z,3.28
2022-08-31T12:46:10.828Z,3.30
2022-08-31T12:49:18.521Z,3.10
2022-08-31T12:52:10.199Z,3.55
2022-08-31T12:55:01.228Z,3.15
2022-08-31T12:57:47.637Z,2.80
2022-08-31T13:00:43.518Z,3.20
2022-08-31T13:03:24.025Z,3.30
2022-08-31T13:06:02.631Z,3.45
2022-08-31T13:08:38.567Z,3.42
2022-08-31T13:11:40.045Z,3.40
2022-08-31T13:14:20.767Z,3.40
2022-08-31T13:16:49.730Z,2.90
2022-08-31T13:19:26.749Z,2.88
2022-08-31T13:22:07.939Z,3.78
2022-08-31T13:24:53.642Z,3.45
2022-08-31T13:27:23.994Z,3.65
2022-08-31T13:29:58.933Z,3.15
2022-08-31T13:32:30.845Z,3.50
2022-08-31T13:35:04.225Z,2.80
2022-08-31T13:37:35.175Z,2.78
2022-08-31T13:40:13.033Z,2.75
2022-08-31T13:42:50.139Z,3.35
2022-08-31T13:45:26.622Z,3.20
2022-08-31T13:48:06.835Z,3.20
2022-08-31T13:50:53.160Z,3.55
2022-08-31T13:53:46.748Z,3.50
2022-08-31T13:59:36.268Z,3.10
2022-08-31T14:02:37.095Z,3.63
2022-08-31T14:05:15.968Z,3.55
2022-08-31T14:07:46.771Z,3.15
2022-08-31T14:10:19.780Z,3.08
2022-08-31T14:12:54.699Z,3.88
2022-08-31T14:15:36.671Z,3.55
2022-08-31T14:18:28.694Z,3.15
2022-08-31T14:21:21.061Z,3.35
2022-08-31T14:24:07.028Z,3.15
2022-08-31T14:26:38.427Z,3.30
2022-08-31T14:29:11.166Z,2.70
2022-08-31T14:31:57.606Z,3.65
2022-08-31T14:34:35.026Z,3.20
2022-08-31T14:37:06.982Z,3.85
2022-08-31T14:39:49.303Z,3.33
2022-08-31T14:42:48.113Z,3.50
2022-08-31T14:45:22.582Z,3.20
2022-08-31T14:47:52.572Z,3.97
2022-08-31T14:50:23.643Z,3.00
2022-08-31T14:52:53.745Z,3.05
2022-08-31T14:55:21.202Z,2.85
2022-08-31T14:57:58.284Z,2.88
2022-08-31T15:00:25.641Z,2.72
2022-08-31T15:02:56.720Z,2.47
2022-08-31T15:05:24.719Z,3.05
2022-08-31T15:07:53.105Z,2.35
2022-08-31T15:10:21.779Z,2.63
2022-08-31T15:12:48.947Z,2.30
2022-08-31T15:15:23.776Z,2.83
2022-08-31T15:17:51.639Z,2.60
2022-08-31T15:20:20.097Z,2.55
2022-08-31T15:22:52.618Z,2.90
2022-08-31T15:25:22.421Z,2.10
2022-08-31T15:27:53.475Z,2.30
2022-08-31T15:30:26.457Z,2.80
2022-08-31T15:33:03.254Z,2.20
2022-08-31T15:35:31.958Z,2.60
2022-08-31T15:38:02.754Z,2.30
2022-08-31T15:40:38.715Z,2.67
2022-08-31T15:43:09.515Z,2.78
2022-08-31T15:45:36.824Z,2.60
2022-08-31T15:48:22.321Z,3.20
2022-08-31T15:51:02.580Z,3.08
2022-08-31T15:53:33.007Z,3.83
2022-08-31T15:56:07.663Z,4.65
2022-08-31T15:58:41.338Z,4.18
2022-08-31T16:01:16.260Z,3.95
2022-08-31T16:03:48.681Z,4.13
2022-08-31T16:06:23.089Z,4.10
2022-08-31T16:08:55.414Z,3.90
2022-08-31T16:11:30.817Z,3.67
2022-08-31T16:14:03.909Z,5.45
2022-08-31T16:16:38.066Z,4.15
2022-08-31T16:19:08.239Z,4.53
2022-08-31T16:21:41.765Z,4.65
2022-08-31T16:24:12.347Z,4.78
2022-08-31T16:26:48.870Z,5.18
2022-08-31T16:29:23.609Z,5.15
2022-08-31T16:31:56.549Z,4.72
2022-08-31T16:34:28.230Z,4.15
2022-08-31T16:36:59.845Z,4.68
2022-08-31T16:39:28.285Z,4.40
2022-08-31T16:41:55.344Z,3.95
2022-08-31T16:44:25.410Z,4.25
2022-08-31T16:47:03.846Z,4.05
2022-08-31T16:49:36.529Z,3.58
2022-08-31T16:52:06.059Z,3.30
2022-08-31T16:54:39.816Z,3.53
2022-08-31T16:57:09.081Z,3.10
2022-08-31T16:59:41.109Z,2.83
2022-08-31T17:02:20.871Z,2.73
2022-08-31T17:04:52.678Z,2.90
2022-08-31T17:07:20.784Z,2.70
2022-08-31T17:09:50.670Z,2.70
2022-08-31T17:12:19.303Z,2.80
2022-08-31T17:14:50.098Z,2.35
2022-08-31T17:17:22.895Z,2.83
2022-08-31T17:19:54.856Z,2.50
2022-08-31T17:22:29.990Z,2.92
2022-08-31T17:25:01.283Z,3.30
2022-08-31T17:27:32.285Z,2.90
2022-08-31T17:30:01.098Z,2.70
2022-08-31T17:32:28.217Z,3.38
2022-08-31T17:34:55.624Z,3.20
2022-08-31T17:37:36.742Z,3.00
2022-08-31T17:40:09.056Z,3.38
2022-08-31T17:42:41.759Z,2.92
2022-08-31T17:45:13.821Z,3.75
2022-08-31T17:47:43.992Z,3.38
2022-08-31T17:50:17.182Z,3.53
2022-08-31T17:52:50.861Z,3.10
2022-08-31T17:55:23.546Z,3.65
2022-08-31T17:57:50.652Z,3.75
2022-08-31T18:00:20.628Z,3.80
2022-08-31T18:02:48.196Z,3.70
2022-08-31T18:05:20.752Z,3.58
2022-08-31T18:07:50.887Z,3.47
2022-08-31T18:10:23.247Z,3.80
2022-08-31T18:12:52.488Z,4.30
2022-08-31T18:15:24.759Z,3.45
2022-08-31T18:17:52.853Z,3.97
2022-08-31T18:20:22.598Z,4.00
2022-08-31T18:22:53.081Z,3.90
2022-08-31T18:25:26.252Z,3.83
2022-08-31T18:27:57.641Z,3.38
2022-08-31T18:30:28.094Z,3.58
2022-08-31T18:32:54.929Z,3.97
2022-08-31T18:35:25.097Z,3.67
2022-08-31T18:37:56.470Z,3.92
2022-08-31T18:40:42.050Z,3.78
2022-08-31T18:43:29.990Z,4.35
2022-08-31T18:46:02.328Z,3.55
2022-08-31T18:48:33.722Z,4.82
2022-08-31T18:51:04.190Z,4.20
2022-08-31T18:53:36.478Z,4.07
2022-08-31T18:56:09.844Z,3.70
2022-08-31T18:58:43.400Z,3.25
2022-08-31T19:01:20.224Z,3.60
2022-08-31T19:03:53.092Z,3.63
2022-08-31T19:06:26.635Z,4.40
2022-08-31T19:08:59.539Z,4.07
2022-08-31T19:11:29.823Z,3.88
2022-08-31T19:13:57.106Z,4.00
2022-08-31T19:16:28.133Z,3.90
2022-08-31T19:18:58.883Z,4.57
2022-08-31T19:21:28.411Z,4.47
2022-08-31T19:23:55.753Z,4.43
2022-08-31T19:26:31.003Z,3.90
2022-08-31T19:28:58.059Z,4.43
2022-08-31T19:31:30.066Z,4.78
2022-08-31T19:33:57.253Z,5.07
2022-08-31T19:36:24.688Z,4.68
2022-08-31T19:38:51.782Z,4.75
2022-08-31T19:41:28.202Z,4.30
2022-08-31T19:44:07.365Z,4.18
2022-08-31T19:46:38.553Z,4.75
2022-08-31T19:49:14.269Z,4.68
2022-08-31T19:51:53.408Z,4.80
2022-08-31T19:54:24.241Z,4.85
2022-08-31T19:56:53.671Z,4.60
2022-08-31T19:59:29.439Z,4.88
2022-08-31T20:01:59.610Z,4.45
2022-08-31T20:04:28.793Z,4.78
2022-08-31T20:07:04.451Z,5.57
2022-08-31T20:09:36.445Z,5.35
2022-08-31T20:12:06.082Z,5.45
2022-08-31T20:14:35.002Z,5.05
2022-08-31T20:17:06.239Z,4.95
2022-08-31T20:19:37.204Z,5.43
2022-08-31T20:22:10.664Z,5.13
2022-08-31T20:24:45.213Z,4.97
2022-08-31T20:27:21.281Z,5.00
2022-08-31T20:29:54.074Z,5.22
2022-08-31T20:32:21.077Z,4.72
2022-08-31T20:34:54.120Z,4.95
2022-08-31T20:39:54.236Z,5.05
2022-08-31T20:42:25.733Z,4.70
2022-08-31T20:44:52.757Z,4.65
2022-08-31T20:47:43.169Z,4.70
2022-08-31T20:50:11.628Z,4.50
2022-08-31T20:52:39.253Z,4.85
2022-08-31T20:55:06.539Z,5.07
2022-08-31T20:57:43.021Z,3.97
2022-08-31T21:00:10.741Z,4.63
2022-08-31T21:02:45.965Z,5.25
2022-08-31T21:08:05.664Z,4.80
2022-08-31T21:10:37.638Z,4.60
2022-08-31T21:13:09.984Z,5.05
2022-08-31T21:15:42.038Z,5.13
2022-08-31T21:18:12.005Z,4.70
2022-08-31T21:20:39.374Z,4.82
2022-08-31T21:23:11.716Z,4.57
2022-08-31T21:25:55.513Z,4.68
2022-08-31T21:28:22.399Z,4.95
2022-08-31T21:30:55.242Z,5.35
2022-08-31T21:33:29.080Z,5.13
2022-08-31T21:36:07.879Z,3.95
2022-08-31T21:38:39.116Z,4.93
2022-08-31T21:41:11.280Z,4.20
2022-08-31T21:43:46.567Z,4.83
2022-08-31T21:46:23.240Z,4.55
2022-08-31T21:48:51.258Z,4.63
2022-08-31T21:51:28.289Z,4.70
2022-08-31T21:54:04.582Z,4.28
2022-08-31T21:56:35.257Z,4.07
2022-08-31T21:59:04.418Z,4.53
2022-08-31T22:01:38.315Z,5.28
2022-08-31T22:04:10.715Z,4.38
2022-08-31T22:06:48.380Z,4.70
2022-08-31T22:09:18.421Z,4.68
2022-08-31T22:11:59.606Z,4.15
2022-08-31T22:14:32.682Z,4.22
2022-08-31T22:17:06.364Z,4.00
2022-08-31T22:19:37.922Z,4.68
2022-08-31T22:22:08.309Z,4.07
2022-08-31T22:24:39.492Z,4.43
2022-08-31T22:27:08.610Z,4.32
2022-08-31T22:29:35.884Z,3.92
2022-08-31T22:32:08.507Z,4.10
2022-08-31T22:34:36.447Z,4.10
2022-08-31T22:37:04.311Z,4.00
2022-08-31T22:39:31.228Z,3.80
2022-08-31T22:41:58.499Z,3.47
2022-08-31T22:44:26.562Z,3.50
2022-08-31T22:46:53.779Z,4.10
2022-08-31T22:49:20.554Z,3.97
2022-08-31T22:51:48.373Z,4.00
2022-08-31T22:54:16.812Z,3.28
2022-08-31T22:56:43.583Z,4.15
2022-08-31T22:59:13.603Z,3.65
2022-08-31T23:01:48.316Z,4.00
2022-08-31T23:04:20.084Z,3.80
2022-08-31T23:06:48.533Z,4.10
2022-08-31T23:09:15.710Z,3.40
2022-08-31T23:11:42.900Z,3.75
2022-08-31T23:14:10.290Z,3.50
2022-08-31T23:16:39.589Z,3.78
2022-08-31T23:19:12.062Z,3.72
2022-08-31T23:21:45.039Z,3.70
2022-08-31T23:24:12.797Z,3.40
2022-08-31T23:26:40.686Z,3.63
2022-08-31T23:29:10.364Z,3.75
2022-08-31T23:31:38.405Z,3.80
2022-08-31T23:34:11.481Z,3.00
2022-08-31T23:36:39.127Z,3.95
2022-08-31T23:39:11.928Z,4.18
2022-08-31T23:41:42.231Z,3.33
2022-08-31T23:44:12.053Z,3.80
2022-08-31T23:46:39.599Z,3.70
2022-08-31T23:49:08.367Z,3.40
2022-08-31T23:51:40.423Z,3.75
2022-08-31T23:54:10.243Z,3.80
2022-08-31T23:56:38.240Z,3.22
2022-08-31T23:59:09.782Z,3.53
